createdAt,value
2018-09-21T00:00:37.771Z,701
2018-09-21T00:01:44.976Z,701
2018-09-21T00:02:52.196Z,701
2018-09-21T00:03:59.406Z,702
2018-09-21T00:05:06.622Z,703
2018-09-21T00:06:13.830Z,702
2018-09-21T00:07:21.042Z,702
2018-09-21T00:08:27.982Z,702
2018-09-21T00:09:35.191Z,703
2018-09-21T00:10:42.409Z,703
2018-09-21T00:11:49.617Z,703
2018-09-21T00:12:57.066Z,703
2018-09-21T00:14:04.259Z,704
2018-09-21T00:15:11.469Z,703
2018-09-21T00:16:18.680Z,704
2018-09-21T00:17:25.902Z,703
2018-09-21T00:18:33.109Z,704
2018-09-21T00:19:40.323Z,703
2018-09-21T00:20:47.272Z,704
2018-09-21T00:21:54.226Z,704
2018-09-21T00:23:01.170Z,704
2018-09-21T00:24:08.388Z,703
2018-09-21T00:25:15.600Z,703
2018-09-21T00:26:22.818Z,703
2018-09-21T00:27:30.031Z,703
2018-09-21T00:28:37.248Z,705
2018-09-21T00:29:44.464Z,705
2018-09-21T00:30:51.687Z,704
2018-09-21T00:31:58.896Z,705
2018-09-21T00:33:06.106Z,704
2018-09-21T00:34:13.325Z,705
2018-09-21T00:35:20.535Z,705
2018-09-21T00:36:27.749Z,703
2018-09-21T00:37:34.964Z,703
2018-09-21T00:38:42.175Z,704
2018-09-21T00:39:49.390Z,704
2018-09-21T00:40:56.607Z,703
2018-09-21T00:42:03.819Z,704
2018-09-21T00:43:10.760Z,704
2018-09-21T00:44:17.975Z,704
2018-09-21T00:45:25.190Z,703
2018-09-21T00:46:32.406Z,702
2018-09-21T00:47:39.620Z,703
2018-09-21T00:48:46.836Z,703
2018-09-21T00:49:53.792Z,702
2018-09-21T00:51:01.006Z,703
2018-09-21T00:52:08.225Z,703
2018-09-21T00:53:15.448Z,702
2018-09-21T00:54:22.655Z,704
2018-09-21T00:55:29.874Z,703
2018-09-21T00:56:36.817Z,702
2018-09-21T00:57:44.039Z,701
2018-09-21T00:58:51.248Z,702
2018-09-21T00:59:58.461Z,702
2018-09-21T01:01:05.678Z,702
2018-09-21T01:02:12.883Z,701
2018-09-21T01:03:20.099Z,703
2018-09-21T01:04:27.043Z,702
2018-09-21T01:05:33.990Z,701
2018-09-21T01:06:41.193Z,701
2018-09-21T01:07:48.407Z,702
2018-09-21T01:08:55.625Z,702
2018-09-21T01:10:02.832Z,702
2018-09-21T01:11:09.775Z,702
2018-09-21T01:12:16.985Z,702
2018-09-21T01:13:24.209Z,702
2018-09-21T01:14:31.419Z,700
2018-09-21T01:15:38.632Z,701
2018-09-21T01:16:45.838Z,701
2018-09-21T01:17:53.054Z,701
2018-09-21T01:19:00.265Z,702
2018-09-21T01:20:21.857Z,701
2018-09-21T01:21:29.075Z,701
2018-09-21T01:22:36.310Z,702
2018-09-21T01:23:43.515Z,701
2018-09-21T01:24:50.733Z,701
2018-09-21T01:25:57.950Z,701
2018-09-21T01:27:05.157Z,701
2018-09-21T01:28:12.370Z,701
2018-09-21T01:29:19.592Z,700
2018-09-21T01:30:26.803Z,700
2018-09-21T01:31:34.014Z,701
2018-09-21T01:32:41.320Z,702
2018-09-21T01:33:48.565Z,702
2018-09-21T01:34:55.497Z,700
2018-09-21T01:36:02.729Z,702
2018-09-21T01:37:09.927Z,701
2018-09-21T01:38:17.162Z,700
2018-09-21T01:39:24.404Z,701
2018-09-21T01:40:31.342Z,699
2018-09-21T01:41:38.561Z,701
2018-09-21T01:42:45.774Z,700
2018-09-21T01:43:52.984Z,700
2018-09-21T01:45:00.201Z,701
2018-09-21T01:46:07.409Z,702
2018-09-21T01:47:14.625Z,700
2018-09-21T01:48:21.842Z,701
2018-09-21T01:49:29.051Z,702
2018-09-21T01:50:36.554Z,700
2018-09-21T01:51:43.994Z,700
2018-09-21T01:52:51.208Z,702
2018-09-21T01:53:58.420Z,701
2018-09-21T01:55:05.630Z,700
2018-09-21T01:56:12.844Z,701
2018-09-21T01:57:20.091Z,699
2018-09-21T01:58:27.301Z,700
2018-09-21T01:59:34.515Z,700
2018-09-21T02:00:41.729Z,701
2018-09-21T02:01:48.949Z,701
2018-09-21T02:02:55.885Z,701
2018-09-21T02:04:03.098Z,701
2018-09-21T02:05:10.310Z,701
2018-09-21T02:06:17.521Z,700
2018-09-21T02:07:24.731Z,700
2018-09-21T02:08:31.943Z,700
2018-09-21T02:09:39.273Z,700
2018-09-21T02:10:46.739Z,699
2018-09-21T02:11:53.954Z,700
2018-09-21T02:13:01.165Z,698
2018-09-21T02:14:08.377Z,700
2018-09-21T02:15:15.040Z,699
2018-09-21T02:16:22.249Z,699
2018-09-21T02:17:29.537Z,699
2018-09-21T02:18:36.751Z,698
2018-09-21T02:19:43.960Z,698
2018-09-21T02:20:51.170Z,699
2018-09-21T02:21:58.378Z,699
2018-09-21T02:23:05.319Z,698
2018-09-21T02:24:12.270Z,698
2018-09-21T02:25:19.488Z,697
2018-09-21T02:26:26.435Z,696
2018-09-21T02:27:33.659Z,694
2018-09-21T02:28:40.866Z,698
2018-09-21T02:29:48.082Z,700
2018-09-21T02:30:55.038Z,699
2018-09-21T02:32:02.251Z,700
2018-09-21T02:33:09.460Z,699
2018-09-21T02:34:16.672Z,699
2018-09-21T02:35:23.881Z,700
2018-09-21T02:36:31.092Z,699
2018-09-21T02:37:38.305Z,700
2018-09-21T02:38:45.521Z,701
2018-09-21T02:39:52.728Z,700
2018-09-21T02:40:59.941Z,699
2018-09-21T02:42:07.156Z,699
2018-09-21T02:43:14.363Z,700
2018-09-21T02:44:21.295Z,702
2018-09-21T02:45:28.516Z,700
2018-09-21T02:46:35.443Z,701
2018-09-21T02:47:42.652Z,701
2018-09-21T02:48:50.116Z,703
2018-09-21T02:49:57.405Z,701
2018-09-21T02:51:04.612Z,702
2018-09-21T02:52:11.829Z,702
2018-09-21T02:53:19.038Z,702
2018-09-21T02:54:26.247Z,702
2018-09-21T02:55:33.193Z,701
2018-09-21T02:56:40.400Z,702
2018-09-21T02:57:47.610Z,703
2018-09-21T02:58:54.826Z,702
2018-09-21T03:00:02.024Z,703
2018-09-21T03:01:09.233Z,703
2018-09-21T03:02:16.448Z,704
2018-09-21T03:03:23.664Z,704
2018-09-21T03:04:30.596Z,703
2018-09-21T03:05:37.815Z,703
2018-09-21T03:06:45.025Z,703
2018-09-21T03:07:52.235Z,703
2018-09-21T03:08:59.450Z,703
2018-09-21T03:10:06.665Z,703
2018-09-21T03:11:13.600Z,703
2018-09-21T03:12:20.819Z,705
2018-09-21T03:13:28.035Z,704
2018-09-21T03:14:35.248Z,705
2018-09-21T03:15:42.459Z,704
2018-09-21T03:16:49.677Z,703
2018-09-21T03:17:56.921Z,703
2018-09-21T03:19:04.145Z,703
2018-09-21T03:20:11.352Z,702
2018-09-21T03:21:18.565Z,703
2018-09-21T03:22:25.775Z,704
2018-09-21T03:23:32.719Z,703
2018-09-21T03:24:39.926Z,704
2018-09-21T03:25:47.148Z,704
2018-09-21T03:26:54.353Z,705
2018-09-21T03:28:01.576Z,704
2018-09-21T03:29:08.785Z,704
2018-09-21T03:30:15.996Z,704
2018-09-21T03:31:23.208Z,704
2018-09-21T03:32:30.420Z,703
2018-09-21T03:33:37.627Z,704
2018-09-21T03:34:44.566Z,703
2018-09-21T03:35:51.783Z,704
2018-09-21T03:36:58.991Z,702
2018-09-21T03:38:06.210Z,702
2018-09-21T03:39:13.412Z,702
2018-09-21T03:40:20.627Z,702
2018-09-21T03:41:27.840Z,703
2018-09-21T03:42:35.047Z,701
2018-09-21T03:43:42.259Z,703
2018-09-21T03:44:49.171Z,703
2018-09-21T03:45:56.379Z,703
2018-09-21T03:47:03.593Z,703
2018-09-21T03:48:10.808Z,703
2018-09-21T03:49:18.024Z,702
2018-09-21T03:50:25.237Z,702
2018-09-21T03:51:32.447Z,703
2018-09-21T03:52:39.648Z,703
2018-09-21T03:53:46.862Z,703
2018-09-21T03:54:53.546Z,704
2018-09-21T03:56:00.759Z,704
2018-09-21T03:57:07.972Z,704
2018-09-21T03:58:15.185Z,705
2018-09-21T03:59:22.398Z,706
2018-09-21T04:00:29.616Z,705
2018-09-21T04:01:36.834Z,705
2018-09-21T04:02:44.046Z,705
2018-09-21T04:03:51.261Z,705
2018-09-21T04:04:58.472Z,706
2018-09-21T04:06:05.410Z,706
2018-09-21T04:07:12.638Z,705
2018-09-21T04:08:19.843Z,704
2018-09-21T04:09:27.055Z,705
2018-09-21T04:10:34.274Z,704
2018-09-21T04:11:41.491Z,704
2018-09-21T04:12:48.702Z,704
2018-09-21T04:13:55.916Z,703
2018-09-21T04:15:03.159Z,703
2018-09-21T04:16:10.370Z,702
2018-09-21T04:17:17.580Z,703
2018-09-21T04:18:24.798Z,703
2018-09-21T04:19:31.738Z,702
2018-09-21T04:20:38.952Z,703
2018-09-21T04:21:46.168Z,702
2018-09-21T04:22:53.469Z,704
2018-09-21T04:24:00.674Z,704
2018-09-21T04:25:07.886Z,703
2018-09-21T04:26:15.100Z,705
2018-09-21T04:27:22.316Z,704
2018-09-21T04:28:29.523Z,703
2018-09-21T04:29:36.737Z,704
2018-09-21T04:30:43.669Z,703
2018-09-21T04:31:50.878Z,704
2018-09-21T04:32:58.083Z,705
2018-09-21T04:34:05.304Z,704
2018-09-21T04:35:12.521Z,704
2018-09-21T04:36:19.735Z,703
2018-09-21T04:37:26.943Z,703
2018-09-21T04:38:34.157Z,705
2018-09-21T04:39:41.602Z,704
2018-09-21T04:40:48.534Z,703
2018-09-21T04:41:55.473Z,704
2018-09-21T04:43:02.684Z,703
2018-09-21T04:44:09.898Z,703
2018-09-21T04:45:17.122Z,703
2018-09-21T04:46:24.335Z,702
2018-09-21T04:47:31.548Z,703
2018-09-21T04:48:38.771Z,702
2018-09-21T04:49:45.984Z,702
2018-09-21T04:50:53.195Z,700
2018-09-21T04:52:00.413Z,702
2018-09-21T04:53:07.625Z,702
2018-09-21T04:54:14.836Z,703
2018-09-21T04:55:21.772Z,702
2018-09-21T04:56:28.984Z,701
2018-09-21T04:57:35.932Z,703
2018-09-21T04:58:42.871Z,701
2018-09-21T04:59:49.818Z,702
2018-09-21T05:00:57.027Z,701
2018-09-21T05:02:03.963Z,699
2018-09-21T05:03:11.178Z,699
2018-09-21T05:04:18.392Z,699
2018-09-21T05:05:25.603Z,699
2018-09-21T05:06:32.536Z,699
2018-09-21T05:07:39.749Z,698
2018-09-21T05:08:46.960Z,699
2018-09-21T05:09:54.172Z,699
2018-09-21T05:11:01.385Z,699
2018-09-21T05:12:08.604Z,698
2018-09-21T05:13:15.809Z,700
2018-09-21T05:14:23.020Z,700
2018-09-21T05:15:30.233Z,699
2018-09-21T05:16:37.453Z,700
2018-09-21T05:17:44.658Z,700
2018-09-21T05:18:51.868Z,701
2018-09-21T05:19:59.084Z,701
2018-09-21T05:21:06.297Z,700
2018-09-21T05:22:13.518Z,701
2018-09-21T05:23:20.730Z,701
2018-09-21T05:24:27.945Z,700
2018-09-21T05:25:35.164Z,702
2018-09-21T05:26:42.105Z,700
2018-09-21T05:27:49.315Z,699
2018-09-21T05:28:56.525Z,699
2018-09-21T05:30:03.739Z,698
2018-09-21T05:31:10.952Z,698
2018-09-21T05:32:18.166Z,699
2018-09-21T05:33:25.376Z,698
2018-09-21T05:34:32.681Z,699
2018-09-21T05:35:40.079Z,698
2018-09-21T05:36:47.291Z,698
2018-09-21T05:37:54.510Z,699
2018-09-21T05:39:01.724Z,699
2018-09-21T05:40:08.937Z,699
2018-09-21T05:41:16.143Z,697
2018-09-21T05:42:23.352Z,699
2018-09-21T05:43:30.570Z,698
2018-09-21T05:44:37.788Z,698
2018-09-21T05:45:44.734Z,699
2018-09-21T05:46:51.951Z,698
2018-09-21T05:47:59.163Z,699
2018-09-21T05:49:06.376Z,698
2018-09-21T05:50:13.590Z,698
2018-09-21T05:51:20.806Z,700
2018-09-21T05:52:27.746Z,699
2018-09-21T05:53:34.958Z,699
2018-09-21T05:54:42.171Z,700
2018-09-21T05:55:49.384Z,698
2018-09-21T05:56:56.592Z,699
2018-09-21T05:58:03.804Z,700
2018-09-21T05:59:11.014Z,698
2018-09-21T06:00:18.251Z,698
2018-09-21T06:01:25.459Z,698
2018-09-21T06:02:32.923Z,698
2018-09-21T06:03:40.224Z,697
2018-09-21T06:04:47.438Z,698
2018-09-21T06:05:54.649Z,698
2018-09-21T06:07:01.866Z,697
2018-09-21T06:08:09.343Z,697
2018-09-21T06:09:16.823Z,696
2018-09-21T06:10:24.034Z,697
2018-09-21T06:11:31.247Z,696
2018-09-21T06:12:38.465Z,696
2018-09-21T06:13:45.774Z,695
2018-09-21T06:14:53.118Z,695
2018-09-21T06:16:00.332Z,695
2018-09-21T06:17:07.563Z,694
2018-09-21T06:18:14.783Z,694
2018-09-21T06:19:22.097Z,693
2018-09-21T06:20:29.396Z,694
2018-09-21T06:21:36.617Z,693
2018-09-21T06:22:47.091Z,693
2018-09-21T06:23:54.324Z,695
2018-09-21T06:25:01.539Z,692
2018-09-21T06:26:08.755Z,692
2018-09-21T06:27:15.962Z,692
2018-09-21T06:28:23.201Z,693
2018-09-21T06:29:30.415Z,691
2018-09-21T06:30:37.638Z,691
2018-09-21T06:31:44.583Z,693
2018-09-21T06:32:51.795Z,691
2018-09-21T06:33:59.012Z,691
2018-09-21T06:35:06.224Z,690
2018-09-21T06:36:13.442Z,688
2018-09-21T06:37:20.648Z,689
2018-09-21T06:38:27.875Z,689
2018-09-21T06:39:35.083Z,689
2018-09-21T06:40:42.307Z,689
2018-09-21T06:41:49.521Z,687
2018-09-21T06:42:56.466Z,687
2018-09-21T06:44:03.688Z,689
2018-09-21T06:45:10.636Z,688
2018-09-21T06:46:17.853Z,687
2018-09-21T06:47:25.178Z,687
2018-09-21T06:48:32.389Z,687
2018-09-21T06:49:39.821Z,687
2018-09-21T06:50:47.033Z,688
2018-09-21T06:51:54.253Z,685
2018-09-21T06:53:01.510Z,686
2018-09-21T06:54:08.730Z,685
2018-09-21T06:55:15.670Z,685
2018-09-21T06:56:22.612Z,684
2018-09-21T06:57:29.548Z,684
2018-09-21T06:58:36.763Z,684
2018-09-21T06:59:43.974Z,685
2018-09-21T07:00:51.191Z,686
2018-09-21T07:01:58.617Z,684
2018-09-21T07:03:05.651Z,685
2018-09-21T07:04:12.865Z,684
2018-09-21T07:05:20.075Z,684
2018-09-21T07:06:27.284Z,683
2018-09-21T07:07:34.496Z,683
2018-09-21T07:08:41.437Z,683
2018-09-21T07:09:48.692Z,683
2018-09-21T07:10:55.901Z,683
2018-09-21T07:12:03.111Z,683
2018-09-21T07:13:10.322Z,684
2018-09-21T07:14:17.268Z,683
2018-09-21T07:15:24.477Z,683
2018-09-21T07:16:31.690Z,683
2018-09-21T07:17:38.907Z,682
2018-09-21T07:18:46.117Z,682
2018-09-21T07:19:53.332Z,681
2018-09-21T07:21:00.555Z,680
2018-09-21T07:22:07.492Z,681
2018-09-21T07:23:14.717Z,679
2018-09-21T07:24:21.399Z,679
2018-09-21T07:25:28.343Z,679
2018-09-21T07:26:35.556Z,678
2018-09-21T07:27:42.768Z,677
2018-09-21T07:28:50.008Z,676
2018-09-21T07:29:57.228Z,676
2018-09-21T07:31:04.503Z,674
2018-09-21T07:32:11.781Z,674
2018-09-21T07:33:18.999Z,674
2018-09-21T07:34:26.218Z,673
2018-09-21T07:35:33.438Z,671
2018-09-21T07:36:40.654Z,671
2018-09-21T07:37:47.886Z,670
2018-09-21T07:38:55.102Z,669
2018-09-21T07:40:02.334Z,667
2018-09-21T07:41:09.541Z,667
2018-09-21T07:42:16.757Z,666
2018-09-21T07:43:23.974Z,666
2018-09-21T07:44:31.425Z,665
2018-09-21T07:45:38.800Z,665
2018-09-21T07:46:46.011Z,665
2018-09-21T07:47:53.228Z,664
2018-09-21T07:49:00.723Z,663
2018-09-21T07:50:07.838Z,663
2018-09-21T07:51:14.782Z,664
2018-09-21T07:52:22.007Z,665
2018-09-21T07:53:29.216Z,663
2018-09-21T07:54:36.437Z,665
2018-09-21T07:55:43.661Z,663
2018-09-21T07:56:50.875Z,661
2018-09-21T07:57:58.095Z,660
2018-09-21T07:59:05.313Z,661
2018-09-21T08:00:12.535Z,662
2018-09-21T08:01:19.772Z,663
2018-09-21T08:02:26.929Z,662
2018-09-21T08:03:33.890Z,661
2018-09-21T08:04:41.133Z,662
2018-09-21T08:05:48.334Z,664
2018-09-21T08:06:55.562Z,664
2018-09-21T08:08:02.794Z,665
2018-09-21T08:09:10.016Z,666
2018-09-21T08:10:17.238Z,667
2018-09-21T08:11:24.461Z,667
2018-09-21T08:12:31.675Z,667
2018-09-21T08:13:38.623Z,668
2018-09-21T08:14:45.577Z,667
2018-09-21T08:15:52.806Z,666
2018-09-21T08:17:00.028Z,666
2018-09-21T08:18:07.242Z,668
2018-09-21T08:19:14.467Z,667
2018-09-21T08:20:21.713Z,665
2018-09-21T08:21:28.655Z,664
2018-09-21T08:22:35.884Z,663
2018-09-21T08:23:43.110Z,663
2018-09-21T08:24:50.326Z,661
2018-09-21T08:25:57.545Z,660
2018-09-21T08:27:04.764Z,662
2018-09-21T08:28:11.714Z,659
2018-09-21T08:29:18.930Z,658
2018-09-21T08:30:26.150Z,658
2018-09-21T08:31:33.633Z,659
2018-09-21T08:32:41.024Z,660
2018-09-21T08:33:48.248Z,660
2018-09-21T08:34:55.466Z,661
2018-09-21T08:36:02.697Z,661
2018-09-21T08:37:09.781Z,663
2018-09-21T08:38:16.880Z,662
2018-09-21T08:39:24.102Z,660
2018-09-21T08:40:31.321Z,658
2018-09-21T08:41:38.546Z,658
2018-09-21T08:42:45.762Z,659
2018-09-21T08:43:52.988Z,659
2018-09-21T08:45:00.216Z,657
2018-09-21T08:46:07.432Z,657
2018-09-21T08:47:14.649Z,659
2018-09-21T08:48:36.241Z,660
2018-09-21T08:49:43.494Z,660
2018-09-21T08:50:50.714Z,660
2018-09-21T08:51:57.934Z,658
2018-09-21T08:53:05.163Z,656
2018-09-21T08:54:12.377Z,655
2018-09-21T08:55:19.597Z,656
2018-09-21T08:56:26.815Z,656
2018-09-21T08:57:34.044Z,654
2018-09-21T08:58:41.278Z,651
2018-09-21T08:59:48.500Z,652
2018-09-21T09:00:55.725Z,653
2018-09-21T09:02:02.943Z,654
2018-09-21T09:03:10.633Z,653
2018-09-21T09:04:18.185Z,651
2018-09-21T09:05:25.410Z,649
2018-09-21T09:06:32.632Z,648
2018-09-21T09:07:39.859Z,647
2018-09-21T09:08:47.079Z,648
2018-09-21T09:09:54.296Z,649
2018-09-21T09:11:01.519Z,650
2018-09-21T09:12:08.734Z,650
2018-09-21T09:13:15.969Z,652
2018-09-21T09:14:23.181Z,651
2018-09-21T09:15:30.402Z,650
2018-09-21T09:16:37.627Z,651
2018-09-21T09:17:44.846Z,648
2018-09-21T09:18:51.787Z,647
2018-09-21T09:19:59.009Z,648
2018-09-21T09:21:06.232Z,647
2018-09-21T09:22:13.446Z,644
2018-09-21T09:23:20.732Z,644
2018-09-21T09:24:27.784Z,643
2018-09-21T09:25:34.795Z,643
2018-09-21T09:26:41.745Z,644
2018-09-21T09:27:48.963Z,644
2018-09-21T09:28:55.908Z,644
2018-09-21T09:30:03.378Z,645
2018-09-21T09:31:10.643Z,645
2018-09-21T09:32:17.870Z,644
2018-09-21T09:33:25.090Z,643
2018-09-21T09:34:32.307Z,643
2018-09-21T09:35:38.979Z,645
2018-09-21T09:36:46.303Z,643
2018-09-21T09:37:53.539Z,642
2018-09-21T09:39:00.485Z,644
2018-09-21T09:40:07.747Z,646
2018-09-21T09:41:14.962Z,645
2018-09-21T09:42:22.185Z,644
2018-09-21T09:43:29.604Z,643
2018-09-21T09:44:36.835Z,643
2018-09-21T09:45:44.058Z,643
2018-09-21T09:46:51.280Z,642
2018-09-21T09:47:58.499Z,642
2018-09-21T09:49:06.386Z,640
2018-09-21T09:50:13.433Z,637
2018-09-21T09:51:20.649Z,638
2018-09-21T09:52:27.871Z,638
2018-09-21T09:53:34.819Z,637
2018-09-21T09:54:42.108Z,637
2018-09-21T09:55:49.445Z,635
2018-09-21T09:56:56.665Z,635
2018-09-21T09:58:03.887Z,637
2018-09-21T09:59:11.102Z,637
2018-09-21T10:00:18.323Z,636
2018-09-21T10:01:25.545Z,635
2018-09-21T10:02:32.768Z,634
2018-09-21T10:03:40.037Z,633
2018-09-21T10:04:47.564Z,633
2018-09-21T10:05:54.779Z,632
2018-09-21T10:07:02.000Z,632
2018-09-21T10:08:09.215Z,630
2018-09-21T10:09:16.434Z,625
2018-09-21T10:10:23.885Z,626
2018-09-21T10:11:31.170Z,628
2018-09-21T10:12:38.393Z,629
2018-09-21T10:13:45.607Z,627
2018-09-21T10:14:52.834Z,626
2018-09-21T10:16:00.053Z,625
2018-09-21T10:17:06.994Z,624
2018-09-21T10:18:14.207Z,624
2018-09-21T10:19:21.425Z,626
2018-09-21T10:20:28.691Z,623
2018-09-21T10:21:35.943Z,623
2018-09-21T10:22:43.165Z,623
2018-09-21T10:23:50.377Z,622
2018-09-21T10:24:57.631Z,624
2018-09-21T10:26:04.855Z,624
2018-09-21T10:27:12.418Z,621
2018-09-21T10:28:20.432Z,620
2018-09-21T10:29:27.978Z,618
2018-09-21T10:30:34.961Z,620
2018-09-21T10:31:42.207Z,622
2018-09-21T10:32:49.192Z,622
2018-09-21T10:33:56.407Z,623
2018-09-21T10:35:03.352Z,620
2018-09-21T10:36:10.580Z,619
2018-09-21T10:37:17.799Z,618
2018-09-21T10:38:25.022Z,617
2018-09-21T10:39:32.237Z,615
2018-09-21T10:40:39.462Z,616
2018-09-21T10:41:46.687Z,617
2018-09-21T10:42:53.967Z,617
2018-09-21T10:44:01.281Z,617
2018-09-21T10:45:08.506Z,617
2018-09-21T10:46:15.193Z,616
2018-09-21T10:47:22.425Z,614
2018-09-21T10:48:29.364Z,615
2018-09-21T10:49:36.590Z,614
2018-09-21T10:50:43.815Z,614
2018-09-21T10:51:50.765Z,615
2018-09-21T10:52:57.977Z,612
2018-09-21T10:54:05.197Z,607
2018-09-21T10:55:12.422Z,604
2018-09-21T10:56:19.636Z,608
2018-09-21T10:57:26.855Z,609
2018-09-21T10:58:34.250Z,610
2018-09-21T10:59:41.564Z,610
2018-09-21T11:00:48.788Z,610
2018-09-21T11:01:56.008Z,609
2018-09-21T11:03:03.230Z,610
2018-09-21T11:04:10.447Z,613
2018-09-21T11:05:17.673Z,612
2018-09-21T11:06:24.623Z,612
2018-09-21T11:07:31.853Z,612
2018-09-21T11:08:39.073Z,612
2018-09-21T11:09:46.023Z,612
2018-09-21T11:10:52.967Z,612
2018-09-21T11:12:00.182Z,612
2018-09-21T11:13:07.638Z,611
2018-09-21T11:14:14.887Z,607
2018-09-21T11:15:22.108Z,606
2018-09-21T11:16:29.329Z,605
2018-09-21T11:17:36.003Z,602
2018-09-21T11:18:43.221Z,602
2018-09-21T11:19:50.446Z,605
2018-09-21T11:20:57.671Z,606
2018-09-21T11:22:04.618Z,606
2018-09-21T11:23:11.829Z,607
2018-09-21T11:24:19.046Z,610
2018-09-21T11:25:26.276Z,610
2018-09-21T11:26:33.501Z,610
2018-09-21T11:27:40.734Z,610
2018-09-21T11:28:47.945Z,611
2018-09-21T11:29:55.267Z,611
2018-09-21T11:31:02.489Z,610
2018-09-21T11:32:09.716Z,607
2018-09-21T11:33:16.933Z,604
2018-09-21T11:34:23.844Z,602
2018-09-21T11:35:30.793Z,603
2018-09-21T11:36:38.017Z,601
2018-09-21T11:37:45.243Z,596
2018-09-21T11:38:52.472Z,598
2018-09-21T11:39:59.693Z,603
2018-09-21T11:41:07.223Z,602
2018-09-21T11:42:14.590Z,604
2018-09-21T11:43:21.815Z,604
2018-09-21T11:44:28.759Z,606
2018-09-21T11:45:35.990Z,605
2018-09-21T11:46:43.333Z,605
2018-09-21T11:47:50.847Z,605
2018-09-21T11:48:58.185Z,607
2018-09-21T11:50:05.405Z,609
2018-09-21T11:51:12.640Z,608
2018-09-21T11:52:19.864Z,607
2018-09-21T11:53:27.087Z,605
2018-09-21T11:54:34.304Z,605
2018-09-21T11:55:41.523Z,605
2018-09-21T11:56:48.742Z,607
2018-09-21T11:57:55.973Z,606
2018-09-21T11:59:03.195Z,606
2018-09-21T12:00:10.143Z,605
2018-09-21T12:01:17.360Z,605
2018-09-21T12:02:24.590Z,606
2018-09-21T12:03:31.536Z,605
2018-09-21T12:04:38.755Z,606
2018-09-21T12:05:45.973Z,606
2018-09-21T12:06:53.213Z,607
2018-09-21T12:08:00.168Z,607
2018-09-21T12:09:07.404Z,607
2018-09-21T12:10:14.663Z,607
2018-09-21T12:11:21.881Z,608
2018-09-21T12:12:28.832Z,607
2018-09-21T12:13:36.055Z,606
2018-09-21T12:14:43.004Z,604
2018-09-21T12:15:50.226Z,605
2018-09-21T12:16:57.579Z,604
2018-09-21T12:18:04.930Z,604
2018-09-21T12:19:12.149Z,605
2018-09-21T12:20:19.106Z,604
2018-09-21T12:21:26.339Z,604
2018-09-21T12:22:33.732Z,604
2018-09-21T12:23:40.959Z,605
2018-09-21T12:24:48.337Z,605
2018-09-21T12:25:55.550Z,605
2018-09-21T12:27:02.770Z,605
2018-09-21T12:28:09.988Z,605
2018-09-21T12:29:17.213Z,605
2018-09-21T12:30:24.720Z,605
2018-09-21T12:31:32.032Z,606
2018-09-21T12:32:39.246Z,606
2018-09-21T12:33:46.468Z,605
2018-09-21T12:34:53.418Z,605
2018-09-21T12:36:01.035Z,606
2018-09-21T12:37:08.319Z,603
2018-09-21T12:38:15.538Z,610
2018-09-21T12:39:22.765Z,611
2018-09-21T12:40:30.004Z,610
2018-09-21T12:41:37.231Z,609
2018-09-21T12:42:44.650Z,609
2018-09-21T12:43:51.874Z,610
2018-09-21T12:44:59.099Z,608
2018-09-21T12:46:06.326Z,599
2018-09-21T12:47:13.544Z,606
2018-09-21T12:48:20.765Z,607
2018-09-21T12:49:27.984Z,606
2018-09-21T12:50:35.351Z,606
2018-09-21T12:51:42.597Z,603
2018-09-21T12:52:49.818Z,604
2018-09-21T12:53:57.039Z,603
2018-09-21T12:55:04.260Z,602
2018-09-21T12:56:11.476Z,602
2018-09-21T12:57:18.693Z,602
2018-09-21T12:58:26.278Z,603
2018-09-21T12:59:33.777Z,602
2018-09-21T13:00:41.001Z,603
2018-09-21T13:01:48.219Z,604
2018-09-21T13:02:55.443Z,605
2018-09-21T13:04:02.390Z,605
2018-09-21T13:05:09.332Z,606
2018-09-21T13:06:16.762Z,606
2018-09-21T13:07:23.784Z,607
2018-09-21T13:08:31.006Z,606
2018-09-21T13:09:38.228Z,606
2018-09-21T13:10:45.446Z,606
2018-09-21T13:11:52.671Z,605
2018-09-21T13:12:59.624Z,605
2018-09-21T13:14:06.567Z,604
2018-09-21T13:15:13.792Z,604
2018-09-21T13:16:21.031Z,604
2018-09-21T13:17:28.246Z,603
2018-09-21T13:18:35.199Z,603
2018-09-21T13:19:42.417Z,602
2018-09-21T13:20:49.104Z,603
2018-09-21T13:21:56.330Z,602
2018-09-21T13:23:03.560Z,602
2018-09-21T13:24:10.786Z,603
2018-09-21T13:25:18.011Z,603
2018-09-21T13:26:25.241Z,605
2018-09-21T13:27:32.467Z,604
2018-09-21T13:28:39.743Z,604
2018-09-21T13:29:46.962Z,604
2018-09-21T13:30:54.186Z,605
2018-09-21T13:32:01.411Z,604
2018-09-21T13:33:08.630Z,604
2018-09-21T13:34:15.578Z,604
2018-09-21T13:35:22.805Z,604
2018-09-21T13:36:29.759Z,603
2018-09-21T13:37:36.979Z,603
2018-09-21T13:38:44.195Z,603
2018-09-21T13:39:51.420Z,601
2018-09-21T13:40:58.374Z,601
2018-09-21T13:42:05.634Z,602
2018-09-21T13:43:12.862Z,602
2018-09-21T13:44:20.101Z,602
2018-09-21T13:45:27.320Z,597
2018-09-21T13:46:34.276Z,600
2018-09-21T13:47:41.511Z,596
2018-09-21T13:48:48.742Z,595
2018-09-21T13:49:55.968Z,633
2018-09-21T13:51:03.461Z,694
2018-09-21T13:52:10.417Z,696
2018-09-21T13:53:17.381Z,692
2018-09-21T13:54:24.341Z,658
2018-09-21T13:55:31.569Z,676
2018-09-21T13:56:38.516Z,700
2018-09-21T13:57:45.748Z,692
2018-09-21T13:58:52.964Z,671
2018-09-21T14:00:00.180Z,687
2018-09-21T14:01:07.128Z,687
2018-09-21T14:02:14.079Z,655
2018-09-21T14:03:21.309Z,444
2018-09-21T14:04:28.540Z,476
2018-09-21T14:05:35.945Z,476
2018-09-21T14:06:42.975Z,474
2018-09-21T14:07:50.200Z,458
2018-09-21T14:08:57.422Z,508
2018-09-21T14:10:04.639Z,538
2018-09-21T14:11:11.863Z,526
2018-09-21T14:12:19.099Z,540
2018-09-21T14:13:26.320Z,560
2018-09-21T14:14:33.543Z,559
2018-09-21T14:15:40.498Z,583
2018-09-21T14:16:47.455Z,555
2018-09-21T14:17:54.684Z,555
2018-09-21T14:19:01.912Z,556
2018-09-21T14:20:08.586Z,556
2018-09-21T14:21:15.629Z,555
2018-09-21T14:22:22.601Z,555
2018-09-21T14:23:29.835Z,556
2018-09-21T14:24:37.093Z,556
2018-09-21T14:25:44.318Z,557
2018-09-21T14:26:51.534Z,558
2018-09-21T14:27:58.754Z,558
2018-09-21T14:29:06.197Z,557
2018-09-21T14:30:13.527Z,555
2018-09-21T14:31:20.734Z,555
2018-09-21T14:32:27.955Z,554
2018-09-21T14:33:35.177Z,555
2018-09-21T14:34:42.402Z,555
2018-09-21T14:35:49.827Z,556
2018-09-21T14:36:57.056Z,556
2018-09-21T14:38:04.287Z,557
2018-09-21T14:39:11.511Z,557
2018-09-21T14:40:18.480Z,556
2018-09-21T14:41:25.693Z,557
2018-09-21T14:42:32.353Z,557
2018-09-21T14:43:39.572Z,557
2018-09-21T14:44:46.518Z,575
2018-09-21T14:45:53.469Z,567
2018-09-21T14:47:00.422Z,572
2018-09-21T14:48:07.635Z,573
2018-09-21T14:49:14.848Z,537
2018-09-21T14:50:21.804Z,428
2018-09-21T14:51:29.030Z,493
2018-09-21T14:52:36.251Z,508
2018-09-21T14:53:43.209Z,511
2018-09-21T14:54:50.441Z,507
2018-09-21T14:55:57.659Z,503
2018-09-21T14:57:04.329Z,482
2018-09-21T14:58:11.554Z,490
2018-09-21T14:59:18.790Z,482
2018-09-21T15:00:25.747Z,491
2018-09-21T15:01:32.694Z,494
2018-09-21T15:02:39.909Z,497
2018-09-21T15:03:47.129Z,510
2018-09-21T15:04:54.349Z,512
2018-09-21T15:06:01.301Z,506
2018-09-21T15:07:08.527Z,507
2018-09-21T15:08:15.772Z,505
2018-09-21T15:09:23.009Z,498
2018-09-21T15:10:30.228Z,487
2018-09-21T15:11:37.177Z,466
2018-09-21T15:12:44.407Z,470
2018-09-21T15:13:51.624Z,485
2018-09-21T15:14:58.846Z,485
2018-09-21T15:16:06.075Z,494
2018-09-21T15:17:13.304Z,497
2018-09-21T15:18:20.519Z,487
2018-09-21T15:19:27.735Z,502
2018-09-21T15:20:34.960Z,495
2018-09-21T15:21:42.191Z,484
2018-09-21T15:22:49.416Z,466
2018-09-21T15:23:56.640Z,468
2018-09-21T15:25:03.876Z,467
2018-09-21T15:26:10.828Z,461